createdAt,value
2016-08-11T00:00:52.033Z,74.86
2016-08-11T00:01:52.042Z,74.86
2016-08-11T00:02:52.071Z,74.96
2016-08-11T00:03:52.073Z,75.05
2016-08-11T00:04:52.080Z,74.86
2016-08-11T00:05:52.084Z,74.86
2016-08-11T00:06:52.073Z,74.86
2016-08-11T00:07:52.088Z,74.86
2016-08-11T00:08:52.104Z,75.05
2016-08-11T00:09:52.118Z,74.86
2016-08-11T00:10:52.126Z,74.96
2016-08-11T00:11:52.131Z,75.05
2016-08-11T00:12:52.140Z,75.24
2016-08-11T00:13:52.129Z,75.24
2016-08-11T00:14:52.155Z,74.86
2016-08-11T00:15:52.146Z,75.15
2016-08-11T00:16:52.846Z,74.86
2016-08-11T00:17:52.160Z,74.86
2016-08-11T00:18:52.172Z,74.96
2016-08-11T00:19:52.183Z,75.05
2016-08-11T00:20:52.187Z,75.05
2016-08-11T00:21:52.252Z,74.86
2016-08-11T00:22:52.202Z,75.15
2016-08-11T00:23:52.220Z,74.96
2016-08-11T00:24:52.229Z,75.24
2016-08-11T00:25:52.243Z,75.24
2016-08-11T00:26:52.234Z,75.15
2016-08-11T00:27:52.256Z,74.96
2016-08-11T00:28:52.265Z,75.15
2016-08-11T00:29:52.280Z,75.05
2016-08-11T00:30:52.269Z,75.24
2016-08-11T00:31:52.287Z,74.96
2016-08-11T00:32:52.278Z,75.15
2016-08-11T00:33:53.003Z,75.05
2016-08-11T00:34:52.303Z,75.05
2016-08-11T00:35:52.315Z,75.05
2016-08-11T00:36:52.304Z,74.96
2016-08-11T00:37:52.312Z,74.96
2016-08-11T00:38:52.339Z,75.05
2016-08-11T00:39:52.353Z,74.86
2016-08-11T00:40:52.337Z,74.96
2016-08-11T00:41:52.345Z,74.96
2016-08-11T00:42:52.356Z,75.15
2016-08-11T00:43:52.362Z,74.96
2016-08-11T00:44:52.368Z,75.05
2016-08-11T00:45:52.392Z,75.15
2016-08-11T00:46:52.398Z,74.86
2016-08-11T00:47:52.397Z,74.96
2016-08-11T00:48:52.407Z,75.05
2016-08-11T00:49:52.426Z,75.15
2016-08-11T00:50:52.429Z,74.96
2016-08-11T00:51:52.435Z,74.96
2016-08-11T00:52:52.451Z,74.96
2016-08-11T00:53:52.440Z,75.05
2016-08-11T00:54:52.455Z,74.96
2016-08-11T00:55:52.473Z,74.96
2016-08-11T00:56:52.484Z,75.15
2016-08-11T00:57:52.479Z,75.24
2016-08-11T00:58:52.506Z,74.96
2016-08-11T00:59:53.184Z,75.05
2016-08-11T01:00:52.495Z,75.15
2016-08-11T01:01:52.529Z,75.24
2016-08-11T01:02:52.524Z,75.05
2016-08-11T01:03:52.520Z,75.24
2016-08-11T01:04:52.518Z,75.24
2016-08-11T01:05:52.538Z,74.86
2016-08-11T01:06:52.557Z,75.05
2016-08-11T01:07:52.546Z,75.15
2016-08-11T01:08:52.561Z,75.05
2016-08-11T01:09:52.583Z,75.15
2016-08-11T01:10:52.581Z,75.24
2016-08-11T01:11:52.592Z,75.24
2016-08-11T01:12:52.600Z,75.24
2016-08-11T01:13:52.604Z,75.15
2016-08-11T01:14:52.606Z,75.15
2016-08-11T01:15:52.623Z,75.24
2016-08-11T01:16:52.637Z,75.05
2016-08-11T01:17:52.624Z,75.24
2016-08-11T01:18:52.631Z,75.15
2016-08-11T01:19:52.658Z,75.05
2016-08-11T01:20:52.647Z,75.05
2016-08-11T01:21:52.670Z,75.15
2016-08-11T01:22:52.671Z,75.15
2016-08-11T01:23:52.668Z,74.86
2016-08-11T01:24:52.699Z,75.24
2016-08-11T01:25:52.704Z,74.96
2016-08-11T01:26:52.714Z,75.05
2016-08-11T01:27:52.721Z,74.96
2016-08-11T01:28:52.721Z,74.86
2016-08-11T01:29:52.716Z,74.86
2016-08-11T01:30:52.725Z,75.24
2016-08-11T01:31:52.724Z,74.86
2016-08-11T01:32:52.751Z,74.96
2016-08-11T01:33:52.788Z,75.05
2016-08-11T01:34:52.768Z,74.96
2016-08-11T01:35:52.767Z,74.86
2016-08-11T01:36:52.779Z,74.86
2016-08-11T01:37:52.788Z,75.24
2016-08-11T01:38:52.784Z,74.86
2016-08-11T01:39:52.803Z,75.05
2016-08-11T01:40:52.820Z,74.86
2016-08-11T01:41:52.803Z,74.96
2016-08-11T01:42:52.830Z,74.86
2016-08-11T01:43:52.834Z,75.24
2016-08-11T01:44:52.830Z,75.05
2016-08-11T01:45:52.838Z,75.05
2016-08-11T01:46:52.864Z,74.86
2016-08-11T01:47:52.878Z,75.05
2016-08-11T01:48:52.869Z,75.15
2016-08-11T01:49:52.872Z,75.15
2016-08-11T01:50:52.896Z,75.05
2016-08-11T01:51:52.886Z,75.05
2016-08-11T01:52:52.893Z,75.05
2016-08-11T01:53:52.910Z,75.05
2016-08-11T01:54:52.918Z,75.05
2016-08-11T01:55:52.911Z,75.15
2016-08-11T01:56:52.932Z,75.05
2016-08-11T01:57:52.948Z,75.05
2016-08-11T01:58:52.953Z,74.86
2016-08-11T01:59:52.968Z,75.05
2016-08-11T02:00:52.978Z,75.05
2016-08-11T02:01:52.966Z,75.15
2016-08-11T02:02:52.978Z,75.15
2016-08-11T02:03:52.975Z,74.96
2016-08-11T02:04:52.989Z,74.96
2016-08-11T02:05:53.006Z,74.96
2016-08-11T02:06:53.020Z,75.05
2016-08-11T02:07:53.025Z,74.86
2016-08-11T02:08:53.036Z,75.15
2016-08-11T02:09:53.033Z,75.05
2016-08-11T02:10:53.038Z,74.86
2016-08-11T02:11:53.049Z,75.05
2016-08-11T02:12:53.055Z,75.05
2016-08-11T02:13:53.080Z,75.05
2016-08-11T02:14:53.075Z,75.05
2016-08-11T02:15:53.083Z,75.05
2016-08-11T02:16:53.090Z,74.96
2016-08-11T02:17:53.099Z,75.15
2016-08-11T02:18:53.109Z,75.34
2016-08-11T02:19:53.117Z,75.24
2016-08-11T02:20:53.114Z,75.05
2016-08-11T02:21:53.115Z,75.05
2016-08-11T02:22:53.131Z,75.15
2016-08-11T02:23:53.142Z,75.05
2016-08-11T02:24:53.137Z,75.15
2016-08-11T02:25:53.152Z,75.15
2016-08-11T02:26:53.155Z,75.15
2016-08-11T02:27:53.163Z,75.15
2016-08-11T02:28:53.189Z,75.15
2016-08-11T02:29:53.184Z,75.05
2016-08-11T02:30:53.184Z,75.15
2016-08-11T02:31:53.189Z,75.15
2016-08-11T02:32:53.220Z,75.05
2016-08-11T02:33:53.214Z,75.15
2016-08-11T02:34:53.222Z,75.05
2016-08-11T02:35:53.243Z,74.96
2016-08-11T02:36:53.236Z,75.24
2016-08-11T02:37:53.251Z,75.15
2016-08-11T02:38:53.267Z,75.15
2016-08-11T02:39:53.277Z,75.24
2016-08-11T02:40:53.977Z,75.05
2016-08-11T02:41:53.291Z,75.05
2016-08-11T02:42:53.296Z,75.24
2016-08-11T02:43:53.285Z,75.24
2016-08-11T02:44:53.300Z,75.15
2016-08-11T02:45:53.315Z,74.96
2016-08-11T02:46:53.333Z,75.05
2016-08-11T02:47:53.316Z,75.15
2016-08-11T02:48:53.334Z,75.15
2016-08-11T02:49:53.338Z,75.05
2016-08-11T02:50:53.354Z,75.24
2016-08-11T02:51:53.355Z,74.96
2016-08-11T02:52:53.376Z,75.15
2016-08-11T02:53:53.373Z,74.96
2016-08-11T02:54:53.400Z,74.96
2016-08-11T02:55:53.375Z,74.96
2016-08-11T02:56:53.411Z,74.96
2016-08-11T02:57:53.415Z,74.96
2016-08-11T02:59:53.436Z,75.05
2016-08-11T03:00:53.419Z,75.24
2016-08-11T03:01:53.428Z,75.05
2016-08-11T03:02:53.450Z,75.05
2016-08-11T03:03:53.453Z,75.05
2016-08-11T03:04:53.449Z,74.96
2016-08-11T03:05:53.469Z,74.96
2016-08-11T03:06:53.470Z,74.96
2016-08-11T03:07:53.478Z,74.86
2016-08-11T03:08:53.480Z,75.05
2016-08-11T03:09:53.504Z,74.86
2016-08-11T03:10:53.500Z,74.96
2016-08-11T03:11:53.530Z,75.05
2016-08-11T03:12:53.512Z,75.05
2016-08-11T03:14:53.525Z,75.05
2016-08-11T03:15:53.533Z,75.05
2016-08-11T03:16:53.546Z,75.15
2016-08-11T03:17:53.563Z,75.05
2016-08-11T03:18:53.562Z,75.15
2016-08-11T03:19:54.253Z,74.86
2016-08-11T03:20:53.589Z,74.86
2016-08-11T03:21:53.609Z,75.05
2016-08-11T03:22:53.605Z,75.05
2016-08-11T03:23:53.588Z,75.05
2016-08-11T03:24:53.607Z,74.96
2016-08-11T03:25:53.620Z,74.96
2016-08-11T03:26:53.634Z,74.86
2016-08-11T03:27:53.644Z,75.05
2016-08-11T03:29:53.645Z,75.15
2016-08-11T03:30:53.670Z,75.15
2016-08-11T03:31:53.668Z,75.05
2016-08-11T03:32:53.661Z,75.05
2016-08-11T03:33:53.663Z,75.15
2016-08-11T03:34:53.682Z,74.96
2016-08-11T03:35:53.722Z,74.96
2016-08-11T03:36:53.691Z,74.86
2016-08-11T03:37:53.716Z,74.86
2016-08-11T03:38:53.705Z,75.05
2016-08-11T03:39:53.711Z,74.86
2016-08-11T03:40:53.738Z,75.05
2016-08-11T03:41:53.749Z,74.96
2016-08-11T03:42:53.759Z,74.86
2016-08-11T03:44:53.749Z,75.05
2016-08-11T03:45:53.767Z,74.86
2016-08-11T03:46:53.782Z,74.96
2016-08-11T03:47:53.776Z,74.86
2016-08-11T03:48:53.805Z,75.05
2016-08-11T03:49:53.810Z,74.86
2016-08-11T03:50:53.811Z,75.05
2016-08-11T03:51:53.820Z,75.15
2016-08-11T03:52:53.825Z,74.96
2016-08-11T03:53:53.838Z,75.05
2016-08-11T03:54:53.841Z,75.05
2016-08-11T03:55:53.852Z,74.86
2016-08-11T03:56:53.847Z,74.96
2016-08-11T03:57:53.866Z,74.96
2016-08-11T03:59:53.877Z,75.15
2016-08-11T04:00:53.880Z,75.05
2016-08-11T04:01:53.899Z,75.15
2016-08-11T04:02:53.889Z,74.86
2016-08-11T04:03:53.910Z,74.96
2016-08-11T04:04:53.903Z,75.05
2016-08-11T04:05:53.921Z,75.05
2016-08-11T04:06:53.939Z,74.96
2016-08-11T04:07:53.946Z,74.86
2016-08-11T04:08:53.954Z,75.05
2016-08-11T04:09:53.943Z,75.15
2016-08-11T04:10:53.969Z,75.05
2016-08-11T04:11:53.954Z,75.05
2016-08-11T04:12:53.975Z,75.05
2016-08-11T04:14:53.998Z,74.96
2016-08-11T04:15:53.991Z,74.96
2016-08-11T04:16:54.000Z,74.96
2016-08-11T04:17:54.012Z,74.96
2016-08-11T04:18:54.018Z,74.86
2016-08-11T04:19:54.021Z,75.05
2016-08-11T04:20:54.747Z,74.96
2016-08-11T04:21:54.043Z,74.96
2016-08-11T04:22:54.043Z,74.96
2016-08-11T04:23:54.064Z,75.05
2016-08-11T04:24:54.057Z,75.05
2016-08-11T04:25:54.069Z,75.05
2016-08-11T04:26:54.079Z,74.96
2016-08-11T04:27:54.093Z,75.05
2016-08-11T04:28:54.114Z,75.05
2016-08-11T04:29:54.113Z,74.96
2016-08-11T04:30:54.120Z,74.96
2016-08-11T04:31:54.111Z,75.11
2016-08-11T04:32:54.133Z,74.96
2016-08-11T04:33:54.122Z,75.05
2016-08-11T04:34:54.142Z,74.96
2016-08-11T04:35:54.153Z,75.15
2016-08-11T04:36:54.155Z,75.02
2016-08-11T04:37:54.158Z,74.96
2016-08-11T04:38:54.186Z,74.86
2016-08-11T04:39:54.171Z,74.96
2016-08-11T04:40:54.183Z,74.96
2016-08-11T04:41:54.189Z,75.15
2016-08-11T04:42:54.210Z,74.96
2016-08-11T04:44:54.212Z,74.86
2016-08-11T04:45:54.220Z,74.96
2016-08-11T04:46:54.232Z,74.96
2016-08-11T04:47:54.244Z,74.96
2016-08-11T04:48:54.259Z,75.05
2016-08-11T04:49:54.246Z,75.15
2016-08-11T04:50:54.252Z,74.96
2016-08-11T04:51:54.283Z,75.15
2016-08-11T04:52:54.283Z,75.05
2016-08-11T04:53:54.296Z,75.05
2016-08-11T04:54:54.305Z,75.05
2016-08-11T04:55:54.311Z,75.05
2016-08-11T04:56:54.321Z,75.34
2016-08-11T04:57:54.311Z,75.15
2016-08-11T04:58:54.320Z,75.24
2016-08-11T04:59:54.331Z,75.05
2016-08-11T05:00:54.349Z,75.05
2016-08-11T05:01:54.342Z,75.05
2016-08-11T05:02:54.357Z,74.86
2016-08-11T05:03:54.365Z,74.86
2016-08-11T05:04:54.374Z,75.24
2016-08-11T05:05:54.375Z,75.24
2016-08-11T05:06:54.381Z,75.24
2016-08-11T05:07:54.396Z,75.24
2016-08-11T05:08:54.389Z,75.05
2016-08-11T05:09:54.403Z,75.15
2016-08-11T05:10:54.424Z,75.24
2016-08-11T05:11:54.416Z,75.05
2016-08-11T05:12:54.437Z,75.05
2016-08-11T05:13:54.442Z,75.24
2016-08-11T05:14:54.445Z,75.05
2016-08-11T05:15:54.450Z,74.86
2016-08-11T05:16:54.459Z,75.15
2016-08-11T05:17:54.478Z,75.15
2016-08-11T05:18:54.477Z,74.86
2016-08-11T05:19:54.488Z,75.24
2016-08-11T05:20:54.481Z,74.86
2016-08-11T05:21:54.495Z,75.24
2016-08-11T05:22:54.536Z,75.15
2016-08-11T05:23:54.513Z,74.86
2016-08-11T05:24:54.512Z,75.24
2016-08-11T05:25:54.534Z,75.24
2016-08-11T05:26:54.536Z,75.05
2016-08-11T05:27:54.562Z,74.96
2016-08-11T05:28:54.565Z,75.24
2016-08-11T05:29:54.571Z,75.05
2016-08-11T05:30:54.579Z,74.96
2016-08-11T05:31:54.563Z,74.67
2016-08-11T05:32:54.588Z,74.86
2016-08-11T05:33:54.604Z,74.67
2016-08-11T05:34:54.589Z,74.76
2016-08-11T05:35:55.317Z,74.38
2016-08-11T05:36:54.628Z,74.57
2016-08-11T05:37:54.618Z,74.48
2016-08-11T05:38:54.620Z,74.48
2016-08-11T05:39:54.638Z,74.48
2016-08-11T05:40:54.656Z,74.48
2016-08-11T05:41:54.660Z,74.67
2016-08-11T05:42:54.661Z,74.57
2016-08-11T05:43:54.669Z,74.57
2016-08-11T05:44:54.677Z,74.67
2016-08-11T05:45:54.689Z,74.48
2016-08-11T05:46:54.680Z,74.38
2016-08-11T05:47:54.714Z,74.86
2016-08-11T05:48:54.701Z,74.57
2016-08-11T05:49:54.725Z,74.29
2016-08-11T05:50:54.708Z,74.86
2016-08-11T05:51:54.732Z,74.57
2016-08-11T05:52:54.749Z,74.86
2016-08-11T05:53:54.749Z,74.48
2016-08-11T05:54:54.766Z,74.57
2016-08-11T05:55:54.766Z,74.57
2016-08-11T05:56:54.762Z,74.76
2016-08-11T05:57:54.781Z,74.57
2016-08-11T05:58:54.788Z,74.57
2016-08-11T05:59:54.797Z,74.67
2016-08-11T06:00:54.810Z,74.57
2016-08-11T06:01:54.801Z,74.57
2016-08-11T06:02:54.804Z,74.29
2016-08-11T06:03:54.831Z,74.48
2016-08-11T06:04:54.837Z,74.48
2016-08-11T06:05:54.856Z,74.57
2016-08-11T06:06:54.844Z,74.67
2016-08-11T06:07:54.857Z,74.67
2016-08-11T06:08:54.868Z,74.67
2016-08-11T06:09:54.861Z,74.38
2016-08-11T06:10:54.878Z,74.67
2016-08-11T06:11:54.878Z,74.38
2016-08-11T06:12:54.894Z,74.38
2016-08-11T06:13:54.902Z,74.38
2016-08-11T06:14:54.898Z,74.57
2016-08-11T06:15:54.916Z,74.29
2016-08-11T06:16:54.931Z,74.48
2016-08-11T06:17:54.929Z,74.57
2016-08-11T06:18:54.929Z,74.38
2016-08-11T06:19:54.936Z,74.09
2016-08-11T06:20:54.943Z,74.48
2016-08-11T06:21:54.949Z,73.9
2016-08-11T06:22:54.959Z,74.29
2016-08-11T06:23:54.981Z,74.09
2016-08-11T06:24:54.993Z,74.76
2016-08-11T06:25:54.990Z,74.29
2016-08-11T06:26:55.003Z,73.9
2016-08-11T06:27:55.008Z,73.99
2016-08-11T06:28:55.012Z,74.48
2016-08-11T06:29:55.036Z,74.86
2016-08-11T06:30:55.031Z,74.57
2016-08-11T06:31:55.026Z,74.67
2016-08-11T06:32:55.036Z,74.29
2016-08-11T06:33:55.057Z,74.86
2016-08-11T06:34:55.053Z,74.19
2016-08-11T06:35:55.055Z,74.38
2016-08-11T06:36:55.082Z,74.76
2016-08-11T06:37:55.094Z,74.38
2016-08-11T06:38:55.093Z,74.38
2016-08-11T06:39:55.114Z,74.67
2016-08-11T06:40:55.118Z,74.19
2016-08-11T06:41:55.121Z,73.99
2016-08-11T06:42:55.111Z,74.29
2016-08-11T06:43:55.142Z,73.71
2016-08-11T06:44:55.124Z,73.9
2016-08-11T06:45:55.153Z,73.22
2016-08-11T06:46:55.149Z,73.51
2016-08-11T06:47:55.164Z,72.74
2016-08-11T06:48:55.172Z,72.26
2016-08-11T06:49:55.173Z,71.78
2016-08-11T06:50:55.172Z,71.49
2016-08-11T06:51:55.191Z,71.4
2016-08-11T06:52:55.207Z,71.49
2016-08-11T06:53:55.210Z,71.3
2016-08-11T06:54:55.207Z,70.53
2016-08-11T06:55:55.205Z,70.24
2016-08-11T06:56:55.238Z,70.24
2016-08-11T06:57:55.242Z,70.62
2016-08-11T06:58:55.233Z,70.82
2016-08-11T06:59:55.246Z,70.62
2016-08-11T07:00:55.245Z,70.34
2016-08-11T07:01:55.254Z,69.67
2016-08-11T07:02:55.281Z,68.99
2016-08-11T07:03:55.266Z,68.41
2016-08-11T07:04:55.296Z,68.03
2016-08-11T07:05:55.293Z,66.97
2016-08-11T07:06:55.291Z,67.13
2016-08-11T07:07:55.295Z,66.49
2016-08-11T07:08:55.304Z,66.55
2016-08-11T07:09:55.326Z,66.39
2016-08-11T07:10:55.316Z,66.07
2016-08-11T07:11:55.324Z,65.97
2016-08-11T07:12:55.330Z,66.17
2016-08-11T07:13:55.342Z,66.1
2016-08-11T07:14:55.357Z,65.72
2016-08-11T07:15:55.351Z,65.81
2016-08-11T07:16:55.374Z,65.81
2016-08-11T07:17:55.391Z,66.1
2016-08-11T07:18:55.377Z,66.01
2016-08-11T07:19:55.388Z,65.63
2016-08-11T07:20:55.405Z,66.49
2016-08-11T07:21:55.404Z,66.39
2016-08-11T07:22:55.461Z,66.58
2016-08-11T07:23:55.437Z,66.58
2016-08-11T07:24:55.450Z,66.88
2016-08-11T07:25:55.444Z,67.16
2016-08-11T07:26:55.437Z,67.07
2016-08-11T07:27:55.446Z,67.07
2016-08-11T07:28:55.445Z,67.16
2016-08-11T07:29:55.472Z,66.88
2016-08-11T07:30:55.477Z,66.97
2016-08-11T07:31:55.477Z,66.68
2016-08-11T07:32:55.491Z,66.97
2016-08-11T07:33:55.485Z,67.16
2016-08-11T07:34:55.499Z,66.78
2016-08-11T07:35:55.506Z,67.07
2016-08-11T07:36:55.506Z,66.78
2016-08-11T07:37:55.520Z,66.68
2016-08-11T07:38:55.520Z,66.58
2016-08-11T07:39:55.529Z,66.78
2016-08-11T07:40:55.542Z,66.58
2016-08-11T07:41:55.557Z,66.49
2016-08-11T07:42:55.562Z,66.39
2016-08-11T07:43:55.556Z,66.39
2016-08-11T07:44:55.579Z,66.97
2016-08-11T07:45:55.577Z,66.97
2016-08-11T07:46:55.586Z,66.39
2016-08-11T07:47:55.603Z,66.49
2016-08-11T07:48:55.604Z,66.58
2016-08-11T07:49:55.606Z,66.39
2016-08-11T07:50:55.621Z,66.58
2016-08-11T07:51:55.709Z,66.88
2016-08-11T07:52:55.635Z,66.71
2016-08-11T07:53:55.650Z,66.97
2016-08-11T07:54:55.646Z,66.88
2016-08-11T07:55:55.669Z,67.19
2016-08-11T07:56:55.668Z,66.39
2016-08-11T07:57:55.661Z,67
2016-08-11T07:58:55.676Z,66.91
2016-08-11T07:59:55.719Z,66.42
2016-08-11T08:00:55.705Z,66.58
2016-08-11T08:01:55.714Z,66.62
2016-08-11T08:02:55.698Z,66.1
2016-08-11T08:03:55.708Z,66.1
2016-08-11T08:04:55.733Z,65.63
2016-08-11T08:05:55.728Z,65.66
2016-08-11T08:06:55.748Z,65.75
2016-08-11T08:07:55.735Z,66.14
2016-08-11T08:08:55.769Z,66.24
2016-08-11T08:09:55.767Z,65.56
2016-08-11T08:10:55.760Z,65.56
2016-08-11T08:11:55.774Z,65.85
2016-08-11T08:12:55.805Z,65.75
2016-08-11T08:13:55.803Z,65.66
2016-08-11T08:14:55.789Z,65.85
2016-08-11T08:15:55.827Z,65.66
2016-08-11T08:16:55.835Z,65.75
2016-08-11T08:17:55.829Z,65.85
2016-08-11T08:18:55.824Z,65.94
2016-08-11T08:19:55.849Z,65.75
2016-08-11T08:20:55.854Z,65.94
2016-08-11T08:21:55.845Z,65.75
2016-08-11T08:22:55.927Z,65.94
2016-08-11T08:23:55.870Z,65.85
2016-08-11T08:24:55.881Z,65.85
2016-08-11T08:25:55.891Z,65.94
2016-08-11T08:26:55.897Z,65.94
2016-08-11T08:27:55.891Z,65.94
2016-08-11T08:28:55.898Z,65.85
2016-08-11T08:29:55.923Z,65.56
2016-08-11T08:30:55.929Z,65.27
2016-08-11T08:31:55.930Z,65.56
2016-08-11T08:32:55.947Z,64.98
2016-08-11T08:33:55.938Z,64.98
2016-08-11T08:34:55.952Z,64.89
2016-08-11T08:35:55.966Z,64.69
2016-08-11T08:36:55.978Z,64.69
2016-08-11T08:37:56.003Z,64.69
2016-08-11T08:38:55.997Z,64.69
2016-08-11T08:39:56.011Z,65.08
2016-08-11T08:40:56.003Z,65.37
2016-08-11T08:41:56.021Z,65.66
2016-08-11T08:42:56.032Z,65.46
2016-08-11T08:43:56.037Z,65.69
2016-08-11T08:44:56.039Z,65.56
2016-08-11T08:45:56.059Z,65.17
2016-08-11T08:46:56.049Z,65.11
2016-08-11T08:47:56.048Z,64.82
2016-08-11T08:48:56.079Z,64.73
2016-08-11T08:49:56.086Z,64.59
2016-08-11T08:50:56.076Z,64.43
2016-08-11T08:51:56.084Z,63.76
2016-08-11T08:52:56.109Z,64.25
2016-08-11T08:53:56.103Z,64.53
2016-08-11T08:54:56.105Z,63.67
2016-08-11T08:55:56.136Z,63.76
2016-08-11T08:56:56.120Z,62.99
2016-08-11T08:57:56.133Z,62.8
2016-08-11T08:58:56.143Z,62.9
2016-08-11T08:59:56.160Z,62.12
2016-08-11T09:00:56.171Z,62.12
2016-08-11T09:01:56.183Z,62.22
2016-08-11T09:02:56.180Z,62.51
2016-08-11T09:03:56.190Z,62.6
2016-08-11T09:04:56.199Z,62.51
2016-08-11T09:05:56.196Z,62.51
2016-08-11T09:06:56.218Z,61.93
2016-08-11T09:07:56.211Z,61.65
2016-08-11T09:08:56.231Z,61.74
2016-08-11T09:09:56.242Z,61.45
2016-08-11T09:10:56.250Z,61.35
2016-08-11T09:11:56.266Z,61.74
2016-08-11T09:12:56.254Z,61.74
2016-08-11T09:13:56.273Z,61.45
2016-08-11T09:14:56.274Z,61.07
2016-08-11T09:15:56.284Z,60.77
2016-08-11T09:16:56.280Z,60.3
2016-08-11T09:17:56.309Z,60.3
2016-08-11T09:18:56.303Z,60.3
2016-08-11T09:19:56.310Z,59.91
2016-08-11T09:20:56.311Z,59.72
2016-08-11T09:21:56.329Z,59.91
2016-08-11T09:22:56.391Z,59.52
2016-08-11T09:23:56.361Z,59.52
2016-08-11T09:24:56.358Z,59.14
2016-08-11T09:25:56.365Z,58.75
2016-08-11T09:26:56.377Z,58.78
2016-08-11T09:27:56.370Z,58.85
2016-08-11T09:28:56.400Z,58.59
2016-08-11T09:29:56.395Z,59.17
2016-08-11T09:31:09.244Z,59.33
2016-08-11T09:32:09.260Z,59.33
2016-08-11T09:33:09.257Z,59.07
2016-08-11T09:34:09.255Z,59.23
2016-08-11T09:35:09.268Z,59.55
2016-08-11T09:36:09.283Z,59.94
2016-08-11T09:37:09.280Z,59.91
2016-08-11T09:38:09.295Z,59.43
2016-08-11T09:39:09.311Z,60.13
2016-08-11T09:40:09.319Z,60.03
2016-08-11T09:41:09.331Z,59.84
2016-08-11T09:42:09.347Z,59.65
2016-08-11T09:43:09.333Z,59.75
2016-08-11T09:44:09.336Z,59.65
2016-08-11T09:45:09.349Z,60.13
2016-08-11T09:46:09.345Z,60.03
2016-08-11T09:47:09.370Z,60.03
2016-08-11T09:48:09.375Z,59.84
2016-08-11T09:49:09.388Z,60.23
2016-08-11T09:50:09.392Z,59.94
2016-08-11T09:51:09.386Z,60.32
2016-08-11T09:52:09.414Z,60.13
2016-08-11T09:53:09.424Z,60.32
2016-08-11T09:54:09.424Z,60.42
2016-08-11T09:55:09.424Z,60.52
2016-08-11T09:56:09.436Z,60.61
2016-08-11T09:57:09.441Z,60.9
2016-08-11T09:58:09.464Z,60.8
2016-08-11T09:59:09.459Z,60.52
2016-08-11T10:00:09.464Z,60.42
2016-08-11T10:01:09.486Z,60.42
2016-08-11T10:02:09.477Z,60.8
2016-08-11T10:03:09.481Z,60.71
2016-08-11T10:04:09.496Z,60.9
2016-08-11T10:05:09.510Z,60.8
2016-08-11T10:06:09.507Z,61.1
2016-08-11T10:07:09.532Z,61
2016-08-11T10:08:09.525Z,61
2016-08-11T10:09:09.550Z,60.9
2016-08-11T10:10:09.570Z,61.1
2016-08-11T10:11:09.570Z,61.19
2016-08-11T10:12:09.552Z,61.29
2016-08-11T10:13:09.573Z,61.32
2016-08-11T10:14:09.576Z,61.32
2016-08-11T10:15:09.581Z,61.13
2016-08-11T10:16:09.592Z,61.13
2016-08-11T10:17:09.606Z,60.55
2016-08-11T10:18:09.604Z,57.94
2016-08-11T10:19:09.614Z,57.72
2016-08-11T10:20:09.613Z,57.53
2016-08-11T10:21:09.628Z,57.82
2016-08-11T10:22:09.656Z,57.53
2016-08-11T10:23:09.696Z,56.76
2016-08-11T10:24:09.671Z,56.66
2016-08-11T10:25:09.677Z,56.09
2016-08-11T10:26:09.686Z,55.7
2016-08-11T10:27:09.682Z,55.31
2016-08-11T10:28:09.681Z,55.02
2016-08-11T10:29:09.706Z,55.02
2016-08-11T10:30:09.708Z,55.22
2016-08-11T10:31:09.696Z,55.12
2016-08-11T10:32:09.708Z,54.83
2016-08-11T10:33:09.721Z,55.12
2016-08-11T10:34:09.734Z,55.22
2016-08-11T10:35:09.734Z,55.31
2016-08-11T10:36:09.771Z,55.02
2016-08-11T10:37:09.767Z,55.31
2016-08-11T10:38:09.759Z,55.22
2016-08-11T10:39:09.763Z,54.83
2016-08-11T10:40:09.798Z,54.16
2016-08-11T10:41:09.791Z,53.77
2016-08-11T10:42:09.782Z,53.39
2016-08-11T10:43:09.798Z,53
2016-08-11T10:44:09.801Z,52.42
2016-08-11T10:45:09.827Z,52.78
2016-08-11T10:46:09.835Z,52.59
2016-08-11T10:47:09.838Z,52.3
2016-08-11T10:48:09.845Z,52.69
2016-08-11T10:49:09.833Z,53.36
2016-08-11T10:50:09.854Z,52.91
2016-08-11T10:51:09.844Z,52.69
2016-08-11T10:52:09.853Z,53.48
2016-08-11T10:53:09.864Z,53.48
2016-08-11T10:54:09.874Z,53.09
2016-08-11T10:55:09.897Z,52.71
2016-08-11T10:56:09.880Z,53.39
2016-08-11T10:57:09.908Z,54.06
2016-08-11T10:58:09.891Z,53.77
2016-08-11T10:59:09.903Z,54.06
2016-08-11T11:00:09.911Z,54.09
2016-08-11T11:01:09.939Z,53.09
2016-08-11T11:02:09.947Z,53
2016-08-11T11:03:09.954Z,52.81
2016-08-11T11:04:09.941Z,52.81
2016-08-11T11:05:09.972Z,53.09
2016-08-11T11:06:09.962Z,52.71
2016-08-11T11:07:09.977Z,53.19
2016-08-11T11:08:09.982Z,53.22
2016-08-11T11:09:10.000Z,52.64
2016-08-11T11:10:09.993Z,53.13
2016-08-11T11:11:10.009Z,53.13
2016-08-11T11:12:10.012Z,52.83
2016-08-11T11:13:10.028Z,53.03
2016-08-11T11:14:10.021Z,53.03
2016-08-11T11:15:10.038Z,53.22
2016-08-11T11:16:10.031Z,52.73
2016-08-11T11:17:10.042Z,53.13
2016-08-11T11:18:10.045Z,53.03
2016-08-11T11:19:10.064Z,52.73
2016-08-11T11:20:10.074Z,53.03
2016-08-11T11:21:10.076Z,52.73
2016-08-11T11:22:10.098Z,53.13
2016-08-11T11:23:10.137Z,53.03
2016-08-11T11:24:10.103Z,52.93
2016-08-11T11:25:10.103Z,52.64
2016-08-11T11:26:10.116Z,52.64
2016-08-11T11:27:10.121Z,52.55
2016-08-11T11:28:10.127Z,52.06
2016-08-11T11:29:10.146Z,51.58
2016-08-11T11:30:10.146Z,51.87
2016-08-11T11:31:10.166Z,52.06
2016-08-11T11:32:10.178Z,51.68
2016-08-11T11:33:10.176Z,51.97
2016-08-11T11:34:10.195Z,51.97
2016-08-11T11:35:10.206Z,53.7
2016-08-11T11:36:10.214Z,53.51
2016-08-11T11:37:10.220Z,53.13
2016-08-11T11:38:10.210Z,53.99
2016-08-11T11:39:10.230Z,54.09
2016-08-11T11:40:10.224Z,54.18
2016-08-11T11:41:10.249Z,54.18
2016-08-11T11:42:10.256Z,54.28
2016-08-11T11:43:10.243Z,54.96
2016-08-11T11:44:10.254Z,54.76
2016-08-11T11:45:10.280Z,54.86
2016-08-11T11:46:10.278Z,54.88
2016-08-11T11:47:10.291Z,54.79
2016-08-11T11:48:10.285Z,54.79
2016-08-11T11:49:10.303Z,54.79
2016-08-11T11:50:10.297Z,54.31
2016-08-11T11:51:10.319Z,54.31
2016-08-11T11:52:10.312Z,54.79
2016-08-11T11:53:10.331Z,54.79
2016-08-11T11:54:10.351Z,55.36
2016-08-11T11:55:10.359Z,56.59
2016-08-11T11:56:10.351Z,56.49
2016-08-11T11:57:10.379Z,56.21
2016-08-11T11:58:10.368Z,55.76
2016-08-11T11:59:10.392Z,55.85
2016-08-11T12:00:10.387Z,55.54
2016-08-11T12:01:10.407Z,55.34
2016-08-11T12:02:10.416Z,55.18
2016-08-11T12:03:10.426Z,54.98
2016-08-11T12:04:10.421Z,54.98
2016-08-11T12:05:10.436Z,55.08
2016-08-11T12:06:10.424Z,54.98
2016-08-11T12:07:10.438Z,54.69
2016-08-11T12:08:10.459Z,54.11
2016-08-11T12:09:10.459Z,53.92
2016-08-11T12:10:10.474Z,53.83
2016-08-11T12:11:10.471Z,53.73
2016-08-11T12:12:10.499Z,53.83
2016-08-11T12:13:10.501Z,54.02
2016-08-11T12:14:10.517Z,53.83
2016-08-11T12:15:10.517Z,53.92
2016-08-11T12:16:10.507Z,53.92
2016-08-11T12:17:10.542Z,53.83
2016-08-11T12:18:10.545Z,53.83
2016-08-11T12:19:10.556Z,54.11
2016-08-11T12:20:10.559Z,54.02
2016-08-11T12:21:10.563Z,54.02
2016-08-11T12:22:10.575Z,53.83
2016-08-11T12:23:10.586Z,54.11
2016-08-11T12:24:10.572Z,53.92
2016-08-11T12:25:10.604Z,54.21
2016-08-11T12:26:10.600Z,54.11
2016-08-11T12:27:10.609Z,54.69
2016-08-11T12:28:10.620Z,54.79
2016-08-11T12:29:10.628Z,54.79
2016-08-11T12:30:10.652Z,54.69
2016-08-11T12:31:10.670Z,54.79
2016-08-11T12:32:10.645Z,54.98
2016-08-11T12:33:10.649Z,54.6
2016-08-11T12:34:10.669Z,54.21
2016-08-11T12:35:10.671Z,53.92
2016-08-11T12:36:10.673Z,53.73
2016-08-11T12:37:10.691Z,53.73
2016-08-11T12:38:10.708Z,53.63
2016-08-11T12:39:10.703Z,53.7
2016-08-11T12:40:10.706Z,54.21
2016-08-11T12:41:10.719Z,53.53
2016-08-11T12:42:10.735Z,53.25
2016-08-11T12:43:10.733Z,53.25
2016-08-11T12:44:10.750Z,53.25
2016-08-11T12:45:10.748Z,53.15
2016-08-11T12:46:10.753Z,52.67
2016-08-11T12:47:11.450Z,52.57
2016-08-11T12:48:10.790Z,53.25
2016-08-11T12:49:10.783Z,53.05
2016-08-11T12:50:10.786Z,53.13
2016-08-11T12:51:10.813Z,53.05
2016-08-11T12:52:10.822Z,53.44
2016-08-11T12:53:10.808Z,53.34
2016-08-11T12:54:10.830Z,53.34
2016-08-11T12:55:10.843Z,53.73
2016-08-11T12:56:10.854Z,53.15
2016-08-11T12:57:10.861Z,54.02
2016-08-11T12:58:10.851Z,53.83
2016-08-11T12:59:10.867Z,53.92
2016-08-11T13:00:10.864Z,54.31
2016-08-11T13:01:10.873Z,54.05
2016-08-11T13:02:10.902Z,53.92